createdAt,value
2019-04-13T00:01:46.206Z,8.30
2019-04-13T00:04:15.292Z,8.47
2019-04-13T00:06:53.995Z,5.20
2019-04-13T00:09:22.458Z,4.80
2019-04-13T00:12:01.388Z,4.30
2019-04-13T00:14:29.903Z,3.93
2019-04-13T00:16:58.337Z,4.80
2019-04-13T00:19:26.774Z,4.03
2019-04-13T00:21:55.222Z,5.67
2019-04-13T00:24:23.661Z,7.43
2019-04-13T00:26:52.107Z,9.10
2019-04-13T00:29:20.534Z,5.40
2019-04-13T00:31:48.997Z,6.93
2019-04-13T00:34:17.428Z,5.00
2019-04-13T00:36:45.953Z,5.70
2019-04-13T00:39:14.380Z,4.57
2019-04-13T00:41:42.829Z,4.93
2019-04-13T00:44:11.279Z,4.03
2019-04-13T00:46:40.706Z,4.60
2019-04-13T00:49:09.132Z,4.80
2019-04-13T00:51:37.602Z,4.87
2019-04-13T00:54:06.107Z,7.47
2019-04-13T00:56:34.567Z,4.40
2019-04-13T00:59:02.996Z,5.23
2019-04-13T01:01:31.458Z,8.30
2019-04-13T01:04:00.317Z,4.67
2019-04-13T01:06:28.802Z,5.33
2019-04-13T01:08:57.351Z,5.73
2019-04-13T01:11:25.781Z,4.80
2019-04-13T01:13:54.226Z,6.10
2019-04-13T01:16:23.541Z,6.63
2019-04-13T01:18:52.030Z,5.23
2019-04-13T01:21:20.515Z,6.70
2019-04-13T01:23:48.971Z,7.60
2019-04-13T01:26:17.403Z,7.13
2019-04-13T01:28:45.983Z,5.30
2019-04-13T01:31:14.415Z,4.57
2019-04-13T01:33:42.848Z,5.30
2019-04-13T01:36:12.301Z,4.23
2019-04-13T01:38:40.794Z,7.53
2019-04-13T01:41:09.259Z,5.70
2019-04-13T01:43:37.687Z,6.70
2019-04-13T01:46:25.471Z,7.37
2019-04-13T01:48:53.994Z,6.07
2019-04-13T01:51:22.427Z,5.50
2019-04-13T01:53:52.964Z,6.30
2019-04-13T01:56:29.415Z,5.83
2019-04-13T01:59:03.855Z,5.70
2019-04-13T02:01:45.879Z,7.03
2019-04-13T02:04:18.763Z,6.57
2019-04-13T02:07:04.954Z,6.20
2019-04-13T02:09:37.902Z,6.53
2019-04-13T03:17:05.340Z,6.53
2019-04-13T03:19:35.414Z,7.20
2019-04-13T03:22:03.861Z,5.50
2019-04-13T03:24:32.424Z,8.57
2019-04-13T03:27:20.287Z,9.83
2019-04-13T03:29:48.718Z,8.03
2019-04-13T03:32:17.169Z,7.10
2019-04-13T03:34:45.599Z,8.93
2019-04-13T03:37:14.043Z,8.47
2019-04-13T03:39:42.472Z,8.57
2019-04-13T03:42:10.927Z,10.50
2019-04-13T03:44:58.702Z,10.73
2019-04-13T03:47:27.241Z,7.73
2019-04-13T03:50:15.011Z,12.10
2019-04-13T03:52:43.462Z,7.80
2019-04-13T03:55:31.293Z,7.80
2019-04-13T03:57:59.763Z,7.30
2019-04-13T04:00:28.195Z,8.20
2019-04-13T04:02:56.639Z,8.00
2019-04-13T04:05:25.079Z,9.00
2019-04-13T04:07:53.534Z,10.90
2019-04-13T04:10:21.970Z,11.03
2019-04-13T04:12:50.418Z,8.20
2019-04-13T04:15:18.840Z,8.37
2019-04-13T04:17:47.279Z,10.17
2019-04-13T04:20:15.882Z,9.53
2019-04-13T04:22:44.320Z,14.07
2019-04-13T04:25:13.310Z,10.47
2019-04-13T04:27:41.745Z,11.30
2019-04-13T04:30:10.364Z,9.70
2019-04-13T04:32:38.795Z,9.60
2019-04-13T04:35:07.411Z,6.60
2019-04-13T04:37:35.848Z,9.50
2019-04-13T04:40:07.140Z,11.17
2019-04-13T04:42:35.568Z,9.37
2019-04-13T04:45:06.651Z,8.70
2019-04-13T04:47:35.161Z,12.97
2019-04-13T04:50:04.138Z,11.90
2019-04-13T04:52:32.577Z,11.07
2019-04-13T04:55:01.024Z,9.03
2019-04-13T04:57:29.461Z,11.33
2019-04-13T04:59:57.921Z,12.03
2019-04-13T05:02:26.431Z,12.37
2019-04-13T05:04:54.863Z,9.40
2019-04-13T05:07:23.311Z,9.20
2019-04-13T05:09:51.755Z,10.93
2019-04-13T05:12:20.211Z,12.73
2019-04-13T05:14:48.639Z,12.73
2019-04-13T05:17:17.086Z,8.80
2019-04-13T05:19:45.596Z,13.07
2019-04-13T05:22:25.360Z,13.73
2019-04-13T05:24:44.272Z,9.13
2019-04-13T05:27:12.724Z,7.93
2019-04-13T05:29:41.161Z,9.10
2019-04-13T05:32:09.592Z,11.17
2019-04-13T05:34:38.039Z,7.67
2019-04-13T05:37:25.809Z,8.57
2019-04-13T05:39:54.267Z,9.60
2019-04-13T05:42:23.736Z,12.00
2019-04-13T05:44:52.198Z,9.83
2019-04-13T05:47:20.627Z,14.10
2019-04-13T05:49:49.080Z,13.27
2019-04-13T05:52:17.520Z,12.87
2019-04-13T05:54:45.970Z,11.03
2019-04-13T05:57:34.436Z,13.37
2019-04-13T06:00:04.190Z,12.77
2019-04-13T06:02:35.636Z,14.40
2019-04-13T06:05:02.868Z,14.53
2019-04-13T06:07:31.316Z,13.13
2019-04-13T06:09:59.826Z,11.63
2019-04-13T06:12:28.268Z,17.03
2019-04-13T06:14:56.721Z,11.30
2019-04-13T06:17:25.222Z,13.17
2019-04-13T06:19:53.692Z,9.50
2019-04-13T06:22:22.183Z,10.60
2019-04-13T06:24:52.146Z,9.80
2019-04-13T06:27:20.802Z,11.47
2019-04-13T06:30:22.200Z,7.83
2019-04-13T06:32:52.279Z,13.87
2019-04-13T06:35:23.598Z,11.73
2019-04-13T06:37:52.191Z,10.43
2019-04-13T06:40:20.705Z,10.97
2019-04-13T06:42:50.691Z,10.67
2019-04-13T06:45:19.459Z,9.50
2019-04-13T06:47:47.879Z,9.10
2019-04-13T06:50:16.343Z,11.20
2019-04-13T06:52:45.325Z,8.20
2019-04-13T06:55:16.191Z,7.80
2019-04-13T06:57:44.184Z,9.93
2019-04-13T07:00:15.494Z,7.27
2019-04-13T07:02:43.112Z,14.53
2019-04-13T07:05:11.822Z,8.50
2019-04-13T07:07:45.886Z,9.53
2019-04-13T07:10:31.261Z,8.90
2019-04-13T07:13:17.160Z,10.60
2019-04-13T07:15:53.412Z,9.67
2019-04-13T07:18:21.835Z,7.17
2019-04-13T07:20:52.092Z,8.67
2019-04-13T07:23:20.440Z,9.50
2019-04-13T07:25:48.891Z,11.30
2019-04-13T07:28:17.333Z,8.53
2019-04-13T07:33:25.811Z,8.17
2019-04-13T07:35:54.269Z,8.87
2019-04-13T07:38:22.691Z,6.90
2019-04-13T07:40:52.037Z,6.03
2019-04-13T07:43:20.535Z,6.10
2019-04-13T07:46:05.649Z,5.40
2019-04-13T07:48:47.753Z,7.97
2019-04-13T07:51:34.127Z,10.27
2019-04-13T07:54:04.330Z,8.00
2019-04-13T07:56:32.807Z,7.13
2019-04-13T07:59:01.242Z,6.53
2019-04-13T08:01:29.683Z,5.40
2019-04-13T08:04:17.535Z,7.70
2019-04-13T08:06:45.990Z,7.17
2019-04-13T08:09:14.437Z,5.73
2019-04-13T08:11:42.863Z,6.47
2019-04-13T08:14:12.956Z,4.40
2019-04-13T08:16:41.573Z,4.77
2019-04-13T08:19:12.726Z,4.47
2019-04-13T08:21:43.181Z,4.40
2019-04-13T08:24:11.848Z,4.13
2019-04-13T08:26:40.307Z,4.33
2019-04-13T08:29:08.827Z,4.03
2019-04-13T08:31:37.332Z,4.03
2019-04-13T08:34:05.808Z,3.77
2019-04-13T08:36:34.260Z,4.10
2019-04-13T08:39:03.759Z,3.30
2019-04-13T08:41:32.196Z,3.50
2019-04-13T08:44:00.783Z,3.77
2019-04-13T08:46:29.364Z,4.30
2019-04-13T08:49:17.151Z,4.07
2019-04-13T08:51:45.595Z,3.43
2019-04-13T08:54:14.065Z,3.70
2019-04-13T08:56:42.532Z,3.77
2019-04-13T08:59:18.284Z,3.37
2019-04-13T09:01:46.853Z,3.53
2019-04-13T09:04:18.443Z,3.27
2019-04-13T09:06:47.249Z,3.17
2019-04-13T09:09:15.735Z,3.03
2019-04-13T09:11:44.677Z,4.40
2019-04-13T09:14:14.499Z,3.73
2019-04-13T09:16:43.639Z,3.10
2019-04-13T09:19:23.154Z,4.33
2019-04-13T09:21:57.612Z,3.83
2019-04-13T09:24:26.168Z,3.23
2019-04-13T09:26:54.777Z,3.23
2019-04-13T09:29:29.252Z,3.30
2019-04-13T09:32:00.392Z,4.70
2019-04-13T09:34:31.570Z,4.40
2019-04-13T09:37:00.378Z,2.70
2019-04-13T09:39:28.332Z,3.43
2019-04-13T09:41:56.851Z,2.90
2019-04-13T09:44:31.200Z,3.10
2019-04-13T09:46:58.983Z,3.20
2019-04-13T09:49:27.406Z,3.33
2019-04-13T09:51:59.883Z,4.40
2019-04-13T09:54:26.024Z,3.13
2019-04-13T09:56:54.505Z,3.20
2019-04-13T09:59:22.977Z,5.63
2019-04-13T10:01:51.432Z,3.50
2019-04-13T10:04:19.897Z,3.07
2019-04-13T10:06:48.503Z,3.43
2019-04-13T10:09:16.944Z,3.63
2019-04-13T10:11:56.042Z,2.70
2019-04-13T10:14:26.162Z,11.07
2019-04-13T10:17:05.350Z,2.87
2019-04-13T10:19:33.796Z,3.93
2019-04-13T10:22:02.224Z,3.50
2019-04-13T10:24:37.154Z,5.50
2019-04-13T10:27:08.931Z,3.90
2019-04-13T10:29:37.848Z,5.23
2019-04-13T10:32:09.015Z,3.90
2019-04-13T10:34:37.553Z,4.57
2019-04-13T10:37:06.039Z,5.40
2019-04-13T10:39:34.467Z,4.03
2019-04-13T10:42:03.206Z,5.80
2019-04-13T10:44:33.717Z,5.20
2019-04-13T10:47:12.859Z,4.30
2019-04-13T10:49:42.951Z,3.93
2019-04-13T10:52:13.050Z,3.80
2019-04-13T10:54:41.575Z,3.83
2019-04-13T10:57:10.077Z,4.13
2019-04-13T10:59:38.506Z,4.23
2019-04-13T11:02:06.957Z,3.97
2019-04-13T11:04:38.387Z,3.50
2019-04-13T11:07:07.917Z,4.93
2019-04-13T11:09:36.350Z,4.03
2019-04-13T11:12:05.459Z,3.37
2019-04-13T11:14:33.916Z,4.10
2019-04-13T11:17:02.440Z,5.60
2019-04-13T11:19:31.124Z,4.23
2019-04-13T11:21:59.698Z,7.67
2019-04-13T11:24:28.142Z,3.70
2019-04-13T11:27:16.486Z,4.30
2019-04-13T11:29:44.917Z,3.40
2019-04-13T11:32:13.350Z,3.67
2019-04-13T11:34:41.836Z,2.80
2019-04-13T11:37:12.231Z,3.80
2019-04-13T11:39:41.637Z,4.70
2019-04-13T11:42:28.858Z,4.17
2019-04-13T11:44:59.011Z,3.87
2019-04-13T11:47:31.774Z,4.30
2019-04-13T11:50:00.229Z,4.57
2019-04-13T11:52:28.829Z,4.30
2019-04-13T11:55:03.241Z,4.30
2019-04-13T11:57:31.676Z,7.37
2019-04-13T12:00:00.124Z,6.17
2019-04-13T12:02:33.368Z,9.40
2019-04-13T12:05:21.718Z,4.90
2019-04-13T12:07:54.559Z,4.73
2019-04-13T12:10:27.606Z,3.83
2019-04-13T12:13:14.195Z,3.87
2019-04-13T12:16:09.734Z,4.90
2019-04-13T12:18:42.983Z,4.07
2019-04-13T12:21:13.084Z,4.43
2019-04-13T12:23:41.716Z,4.33
2019-04-13T12:26:10.167Z,6.43
2019-04-13T12:28:38.617Z,4.73
2019-04-13T12:31:07.214Z,7.10
2019-04-13T12:33:35.668Z,6.23
2019-04-13T12:36:04.621Z,4.90
2019-04-13T12:38:33.136Z,4.33
2019-04-13T12:41:03.214Z,4.43
2019-04-13T12:43:31.663Z,4.47
2019-04-13T12:46:00.103Z,4.30
2019-04-13T12:48:28.651Z,4.20
2019-04-13T12:50:57.171Z,3.90
2019-04-13T12:53:25.632Z,5.17
2019-04-13T12:55:56.396Z,5.27
2019-04-13T12:58:24.259Z,5.57
2019-04-13T13:01:16.297Z,4.60
2019-04-13T13:03:45.008Z,4.03
2019-04-13T13:06:16.664Z,8.07
2019-04-13T13:08:43.623Z,4.50
2019-04-13T13:11:12.965Z,13.03
2019-04-13T13:13:41.747Z,4.50
2019-04-13T13:16:10.191Z,8.23
2019-04-13T13:18:38.687Z,4.93
2019-04-13T13:21:07.232Z,4.60
2019-04-13T13:23:35.737Z,5.30
2019-04-13T13:26:04.269Z,4.90
2019-04-13T13:28:33.743Z,4.40
2019-04-13T13:31:02.242Z,4.67
2019-04-13T13:33:30.705Z,3.87
2019-04-13T13:35:59.170Z,4.00
2019-04-13T13:38:46.958Z,4.07
2019-04-13T13:41:15.548Z,5.13
2019-04-13T13:43:45.575Z,6.77
2019-04-13T13:46:14.173Z,4.30
2019-04-13T13:48:42.933Z,5.03
2019-04-13T13:51:30.892Z,5.13
2019-04-13T13:53:59.336Z,8.60
2019-04-13T13:56:30.152Z,7.60
2019-04-13T13:59:04.868Z,6.77
2019-04-13T14:01:43.995Z,6.30
2019-04-13T14:04:12.587Z,5.13
2019-04-13T14:06:41.085Z,4.97
2019-04-13T14:09:11.097Z,5.80
2019-04-13T14:11:39.587Z,5.37
2019-04-13T14:14:08.413Z,4.63
2019-04-13T14:16:36.905Z,3.40
2019-04-13T14:19:05.410Z,4.83
2019-04-13T14:21:38.212Z,5.20
2019-04-13T14:24:04.248Z,5.30
2019-04-13T14:26:52.163Z,3.20
2019-04-13T14:29:20.619Z,5.13
2019-04-13T14:31:49.056Z,7.30
2019-04-13T14:34:17.483Z,5.47
2019-04-13T14:36:45.931Z,3.43
2019-04-13T14:39:14.370Z,5.27
2019-04-13T14:41:42.897Z,4.83
2019-04-13T14:44:11.331Z,8.77
2019-04-13T14:47:00.806Z,10.23
2019-04-13T14:49:29.231Z,7.07
2019-04-13T14:51:57.759Z,7.00
2019-04-13T14:54:26.211Z,6.90
2019-04-13T14:56:54.670Z,7.47
2019-04-13T14:59:23.105Z,5.57
2019-04-13T15:01:51.529Z,7.20
2019-04-13T15:04:19.983Z,4.80
2019-04-13T15:06:48.417Z,5.30
2019-04-13T15:09:17.548Z,8.67
2019-04-13T15:11:46.599Z,9.53
2019-04-13T15:14:15.183Z,5.70
2019-04-13T15:16:46.464Z,6.57
2019-04-13T15:19:28.212Z,3.73
2019-04-13T15:21:46.074Z,3.40
2019-04-13T15:24:17.182Z,3.13
2019-04-13T15:26:46.102Z,3.10
2019-04-13T15:29:18.859Z,16.37
2019-04-13T15:31:51.170Z,5.73
2019-04-13T15:34:20.487Z,5.57
2019-04-13T15:36:49.057Z,4.40
2019-04-13T15:39:18.595Z,17.60
2019-04-13T15:42:00.189Z,2.63
2019-04-13T15:44:17.777Z,3.60
2019-04-13T15:46:47.896Z,3.40
2019-04-13T15:49:36.022Z,3.87
2019-04-13T15:52:05.715Z,4.85
2019-04-13T15:54:35.016Z,8.20
2019-04-13T15:57:06.550Z,4.63
2019-04-13T15:59:35.189Z,5.40
2019-04-13T16:02:04.497Z,6.15
2019-04-13T16:04:37.301Z,4.70
2019-04-13T16:07:07.432Z,5.17
2019-04-13T16:09:39.048Z,6.10
2019-04-13T16:12:14.757Z,8.20
2019-04-13T16:14:44.019Z,4.22
2019-04-13T16:17:14.487Z,3.97
2019-04-13T16:19:43.714Z,5.17
2019-04-13T16:22:13.409Z,5.80
2019-04-13T16:24:41.967Z,5.17
2019-04-13T16:27:10.431Z,4.77
2019-04-13T16:29:49.575Z,5.37
2019-04-13T16:32:36.031Z,6.00
2019-04-13T16:35:22.220Z,21.97
2019-04-13T16:37:52.804Z,9.13
2019-04-13T16:40:22.691Z,5.60
2019-04-13T16:42:51.428Z,12.50
2019-04-13T16:45:36.567Z,5.27
2019-04-13T16:48:06.858Z,12.13
2019-04-13T16:50:37.080Z,6.23
2019-04-13T16:53:08.125Z,11.33
2019-04-13T16:55:56.597Z,4.73
2019-04-13T16:58:30.020Z,4.97
2019-04-13T17:01:15.236Z,6.90
2019-04-13T17:03:45.931Z,4.60
2019-04-13T17:06:14.767Z,4.40
2019-04-13T17:08:43.283Z,7.63
2019-04-13T17:11:11.711Z,7.43
2019-04-13T17:13:41.197Z,6.00
2019-04-13T17:16:09.845Z,5.70
2019-04-13T17:18:42.988Z,7.30
2019-04-13T17:21:24.918Z,4.47
2019-04-13T17:24:04.985Z,5.70
2019-04-13T17:26:50.603Z,12.00
2019-04-13T17:29:27.370Z,11.70
2019-04-13T17:31:57.818Z,18.13
2019-04-13T17:34:28.198Z,10.87
2019-04-13T17:36:58.507Z,11.60
2019-04-13T17:39:27.550Z,6.73
2019-04-13T17:42:29.535Z,4.50
2019-04-13T17:45:08.997Z,7.10
2019-04-13T17:47:47.717Z,11.63
2019-04-13T17:50:20.632Z,13.57
2019-04-13T17:53:09.292Z,6.63
2019-04-13T17:55:42.188Z,9.50
2019-04-13T17:58:29.616Z,5.50
2019-04-13T18:01:02.692Z,6.37
2019-04-13T18:03:36.394Z,6.47
2019-04-13T18:06:23.633Z,5.50
2019-04-13T18:09:28.741Z,6.73
2019-04-13T18:12:01.667Z,6.80
2019-04-13T18:14:36.104Z,9.37
2019-04-13T18:17:09.539Z,16.50
2019-04-13T18:19:38.144Z,15.37
2019-04-13T18:22:07.848Z,20.33
2019-04-13T18:24:36.587Z,20.57
2019-04-13T18:27:06.503Z,21.57
2019-04-13T18:29:35.288Z,15.63
2019-04-13T18:32:05.116Z,6.37
2019-04-13T18:34:34.006Z,6.80
2019-04-13T18:37:03.585Z,11.33
2019-04-13T18:39:33.645Z,9.37
2019-04-13T18:42:03.452Z,6.70
2019-04-13T18:44:32.544Z,8.53
2019-04-13T18:47:01.488Z,10.20
2019-04-13T18:49:30.314Z,9.07
2019-04-13T18:51:58.818Z,7.47
2019-04-13T18:54:27.967Z,5.60
2019-04-13T18:56:56.496Z,5.17
2019-04-13T18:59:24.923Z,8.13
2019-04-13T19:01:53.798Z,5.70
2019-04-13T19:04:22.518Z,5.33
2019-04-13T19:06:50.969Z,6.00
2019-04-13T19:09:19.424Z,4.50
2019-04-13T19:11:47.862Z,6.40
2019-04-13T19:14:16.397Z,4.10
2019-04-13T19:16:45.805Z,6.10
2019-04-13T19:19:20.447Z,5.20
2019-04-13T19:21:48.913Z,6.47
2019-04-13T19:24:17.507Z,5.87
2019-04-13T19:26:46.925Z,5.30
2019-04-13T19:29:15.361Z,6.27
2019-04-13T19:31:43.903Z,6.10
2019-04-13T19:34:12.351Z,5.57
2019-04-13T19:37:00.160Z,5.80
2019-04-13T19:39:28.772Z,5.40
2019-04-13T19:41:57.201Z,7.53
2019-04-13T19:44:25.675Z,6.43
2019-04-13T19:46:54.131Z,5.47
2019-04-13T19:49:22.795Z,6.80
2019-04-13T19:51:52.929Z,6.43
2019-04-13T19:54:21.639Z,6.03
2019-04-13T19:56:50.077Z,8.00
2019-04-13T19:59:18.540Z,6.77
2019-04-13T20:01:47.007Z,18.80
2019-04-13T20:04:15.608Z,20.90
2019-04-13T20:06:44.068Z,15.47
2019-04-13T20:09:12.525Z,16.13
2019-04-13T20:11:41.099Z,21.60
2019-04-13T20:14:13.024Z,18.90
2019-04-13T20:16:40.434Z,12.63
2019-04-13T20:19:08.936Z,18.93
2019-04-13T20:21:37.479Z,13.47
2019-04-13T20:24:06.007Z,26.13
2019-04-13T20:26:34.532Z,16.80
2019-04-13T20:29:03.577Z,20.27
2019-04-13T20:31:33.228Z,13.97
2019-04-13T20:34:03.145Z,20.27
2019-04-13T20:36:31.679Z,25.40
2019-04-13T20:39:00.605Z,21.83
2019-04-13T20:41:41.662Z,18.67
2019-04-13T20:44:04.636Z,19.33
2019-04-13T20:46:29.942Z,25.70
2019-04-13T20:49:06.502Z,12.43
2019-04-13T20:51:35.187Z,25.03
2019-04-13T20:54:22.988Z,18.53
2019-04-13T20:56:51.465Z,20.07
2019-04-13T20:59:19.946Z,16.10
2019-04-13T21:01:49.542Z,18.77
2019-04-13T21:04:19.352Z,22.20
2019-04-13T21:06:48.144Z,18.73
2019-04-13T21:09:16.578Z,16.47
2019-04-13T21:11:45.893Z,16.93
2019-04-13T21:14:26.358Z,33.00
2019-04-13T21:16:45.264Z,26.40
2019-04-13T21:19:13.835Z,25.73
2019-04-13T21:21:43.119Z,22.13
2019-04-13T21:24:13.461Z,20.83
2019-04-13T21:26:43.489Z,21.50
2019-04-13T21:29:13.131Z,17.70
2019-04-13T21:31:41.715Z,21.27
2019-04-13T21:34:11.395Z,26.93
2019-04-13T21:36:41.289Z,24.57
2019-04-13T21:39:11.433Z,18.57
2019-04-13T21:41:41.284Z,18.73
2019-04-13T21:44:19.762Z,19.57
2019-04-13T21:46:40.057Z,20.27
2019-04-13T21:49:08.503Z,17.83
2019-04-13T21:51:48.679Z,18.90
2019-04-13T21:54:38.606Z,20.73
2019-04-13T21:57:07.300Z,18.80
2019-04-13T21:59:36.847Z,24.30
2019-04-13T22:02:09.136Z,21.57
2019-04-13T22:04:39.042Z,17.47
2019-04-13T22:07:07.555Z,19.53
2019-04-13T22:09:36.962Z,16.37
2019-04-13T22:12:06.936Z,21.80
2019-04-13T22:14:46.194Z,26.73
2019-04-13T22:17:05.942Z,18.03
2019-04-13T22:19:35.423Z,18.93
2019-04-13T22:22:05.489Z,20.97
2019-04-13T22:24:42.079Z,19.23
2019-04-13T22:27:14.613Z,16.67
2019-04-13T22:29:48.432Z,16.20
2019-04-13T22:32:36.196Z,20.80
2019-04-13T22:35:08.600Z,16.93
2019-04-13T22:37:38.374Z,16.17
2019-04-13T22:40:08.382Z,17.47
2019-04-13T22:42:56.490Z,19.40
2019-04-13T22:45:25.617Z,24.10
2019-04-13T22:48:15.994Z,14.83
2019-04-13T22:50:50.034Z,13.70
2019-04-13T22:53:32.957Z,16.23
2019-04-13T22:56:07.111Z,13.47
2019-04-13T22:58:35.656Z,16.33
2019-04-13T23:03:42.515Z,18.83
2019-04-13T23:06:11.771Z,16.80
2019-04-13T23:08:40.382Z,16.20
2019-04-13T23:11:08.824Z,14.93
2019-04-13T23:13:38.466Z,18.83
2019-04-13T23:16:08.217Z,24.20
2019-04-13T23:18:36.992Z,13.80
2019-04-13T23:21:05.427Z,16.50
2019-04-13T23:23:33.882Z,19.33
2019-04-13T23:26:03.620Z,17.90
2019-04-13T23:28:33.541Z,15.33
2019-04-13T23:31:02.280Z,19.00
2019-04-13T23:33:30.731Z,13.17
2019-04-13T23:35:59.175Z,15.20
2019-04-13T23:38:28.655Z,16.20
2019-04-13T23:40:57.336Z,17.40
2019-04-13T23:43:25.795Z,16.87
2019-04-13T23:45:54.250Z,21.40
2019-04-13T23:48:22.713Z,19.13
2019-04-13T23:50:52.412Z,19.43
2019-04-13T23:53:20.925Z,16.30
2019-04-13T23:55:57.557Z,24.40
2019-04-13T23:58:27.855Z,18.83
